sensor_id;sensor_type;location;lat;lon;timestamp;P1;durP1;ratioP1;P2;durP2;ratioP2
41885;SDS011;27567;43.084;25.616;2022-08-04T00:00:10;6.35;;;3.72;;
41885;SDS011;27567;43.084;25.616;2022-08-04T00:12:39;10.38;;;3.50;;
41885;SDS011;27567;43.084;25.616;2022-08-04T00:15:26;11.77;;;3.30;;
41885;SDS011;27567;43.084;25.616;2022-08-04T00:18:13;13.35;;;3.35;;
41885;SDS011;27567;43.084;25.616;2022-08-04T00:21:02;4.22;;;3.33;;
41885;SDS011;27567;43.084;25.616;2022-08-04T00:23:48;6.10;;;2.97;;
41885;SDS011;27567;43.084;25.616;2022-08-04T00:26:34;5.05;;;3.45;;
41885;SDS011;27567;43.084;25.616;2022-08-04T00:29:20;7.05;;;3.28;;
41885;SDS011;27567;43.084;25.616;2022-08-04T00:32:06;7.72;;;3.28;;
41885;SDS011;27567;43.084;25.616;2022-08-04T00:34:51;5.50;;;3.33;;
41885;SDS011;27567;43.084;25.616;2022-08-04T00:37:37;5.32;;;3.30;;
41885;SDS011;27567;43.084;25.616;2022-08-04T00:43:34;6.57;;;3.05;;
41885;SDS011;27567;43.084;25.616;2022-08-04T00:53:10;5.10;;;2.50;;
41885;SDS011;27567;43.084;25.616;2022-08-04T00:57:02;5.50;;;2.90;;
41885;SDS011;27567;43.084;25.616;2022-08-04T01:02:36;6.55;;;2.33;;
41885;SDS011;27567;43.084;25.616;2022-08-04T01:21:51;3.97;;;3.40;;
41885;SDS011;27567;43.084;25.616;2022-08-04T01:31:24;7.60;;;3.60;;
41885;SDS011;27567;43.084;25.616;2022-08-04T01:34:17;10.93;;;4.43;;
41885;SDS011;27567;43.084;25.616;2022-08-04T01:37:19;11.10;;;4.05;;
41885;SDS011;27567;43.084;25.616;2022-08-04T01:40:15;10.10;;;4.35;;
41885;SDS011;27567;43.084;25.616;2022-08-04T01:43:00;7.13;;;3.90;;
41885;SDS011;27567;43.084;25.616;2022-08-04T01:45:50;6.50;;;4.03;;
41885;SDS011;27567;43.084;25.616;2022-08-04T01:48:44;9.75;;;4.40;;
41885;SDS011;27567;43.084;25.616;2022-08-04T01:51:30;13.13;;;7.97;;
41885;SDS011;27567;43.084;25.616;2022-08-04T01:54:18;10.77;;;6.43;;
41885;SDS011;27567;43.084;25.616;2022-08-04T01:57:04;9.63;;;5.60;;
41885;SDS011;27567;43.084;25.616;2022-08-04T01:59:49;9.82;;;5.15;;
41885;SDS011;27567;43.084;25.616;2022-08-04T02:02:34;18.23;;;5.35;;
41885;SDS011;27567;43.084;25.616;2022-08-04T02:05:19;12.32;;;5.55;;
41885;SDS011;27567;43.084;25.616;2022-08-04T02:08:12;15.18;;;8.82;;
41885;SDS011;27567;43.084;25.616;2022-08-04T02:14:01;11.00;;;7.25;;
41885;SDS011;27567;43.084;25.616;2022-08-04T02:17:28;11.85;;;6.43;;
41885;SDS011;27567;43.084;25.616;2022-08-04T02:20:16;9.43;;;5.97;;
41885;SDS011;27567;43.084;25.616;2022-08-04T02:23:07;16.08;;;5.85;;
41885;SDS011;27567;43.084;25.616;2022-08-04T02:25:57;12.88;;;5.80;;
41885;SDS011;27567;43.084;25.616;2022-08-04T02:29:33;8.30;;;6.22;;
41885;SDS011;27567;43.084;25.616;2022-08-04T02:31:54;7.47;;;5.10;;
41885;SDS011;27567;43.084;25.616;2022-08-04T02:37:36;12.18;;;5.82;;
41885;SDS011;27567;43.084;25.616;2022-08-04T02:40:20;11.98;;;6.40;;
41885;SDS011;27567;43.084;25.616;2022-08-04T02:43:07;10.65;;;7.45;;
41885;SDS011;27567;43.084;25.616;2022-08-04T02:45:54;11.98;;;7.43;;
41885;SDS011;27567;43.084;25.616;2022-08-04T02:48:40;15.15;;;7.18;;
41885;SDS011;27567;43.084;25.616;2022-08-04T02:51:27;10.52;;;6.57;;
41885;SDS011;27567;43.084;25.616;2022-08-04T02:54:14;11.10;;;6.80;;
41885;SDS011;27567;43.084;25.616;2022-08-04T02:57:00;6.70;;;5.32;;
41885;SDS011;27567;43.084;25.616;2022-08-04T03:30:03;6.65;;;2.83;;
41885;SDS011;27567;43.084;25.616;2022-08-04T03:41:53;5.28;;;2.92;;
41885;SDS011;27567;43.084;25.616;2022-08-04T03:51:17;4.57;;;2.53;;
41885;SDS011;27567;43.084;25.616;2022-08-04T04:25:48;5.30;;;2.35;;
41885;SDS011;27567;43.084;25.616;2022-08-04T04:28:54;7.20;;;2.92;;
41885;SDS011;27567;43.084;25.616;2022-08-04T04:38:03;4.65;;;3.10;;
41885;SDS011;27567;43.084;25.616;2022-08-04T04:41:20;6.07;;;3.00;;
41885;SDS011;27567;43.084;25.616;2022-08-04T04:53:41;7.80;;;2.78;;
41885;SDS011;27567;43.084;25.616;2022-08-04T04:59:14;8.40;;;3.10;;
41885;SDS011;27567;43.084;25.616;2022-08-04T05:11:03;8.25;;;4.82;;
41885;SDS011;27567;43.084;25.616;2022-08-04T05:14:15;13.02;;;5.18;;
41885;SDS011;27567;43.084;25.616;2022-08-04T05:17:24;18.35;;;6.47;;
41885;SDS011;27567;43.084;25.616;2022-08-04T05:20:19;29.92;;;7.30;;
41885;SDS011;27567;43.084;25.616;2022-08-04T05:23:10;12.70;;;5.22;;
41885;SDS011;27567;43.084;25.616;2022-08-04T05:25:58;32.25;;;7.07;;
41885;SDS011;27567;43.084;25.616;2022-08-04T05:28:55;26.27;;;6.30;;
41885;SDS011;27567;43.084;25.616;2022-08-04T05:31:43;18.80;;;7.43;;
41885;SDS011;27567;43.084;25.616;2022-08-04T05:34:35;12.15;;;5.65;;
41885;SDS011;27567;43.084;25.616;2022-08-04T05:37:23;10.38;;;5.50;;
41885;SDS011;27567;43.084;25.616;2022-08-04T05:40:10;11.65;;;6.47;;
41885;SDS011;27567;43.084;25.616;2022-08-04T05:42:55;13.85;;;6.50;;
41885;SDS011;27567;43.084;25.616;2022-08-04T05:45:41;21.88;;;7.93;;
41885;SDS011;27567;43.084;25.616;2022-08-04T05:48:26;18.67;;;9.80;;
41885;SDS011;27567;43.084;25.616;2022-08-04T05:51:11;24.27;;;9.77;;
41885;SDS011;27567;43.084;25.616;2022-08-04T05:53:55;20.77;;;9.35;;
41885;SDS011;27567;43.084;25.616;2022-08-04T05:56:41;19.58;;;11.38;;
41885;SDS011;27567;43.084;25.616;2022-08-04T05:59:26;23.58;;;13.82;;
41885;SDS011;27567;43.084;25.616;2022-08-04T06:02:13;19.67;;;11.90;;
41885;SDS011;27567;43.084;25.616;2022-08-04T06:05:00;30.27;;;10.88;;
41885;SDS011;27567;43.084;25.616;2022-08-04T06:07:48;20.63;;;10.00;;
41885;SDS011;27567;43.084;25.616;2022-08-04T06:10:33;28.75;;;10.40;;
41885;SDS011;27567;43.084;25.616;2022-08-04T06:13:24;27.83;;;11.98;;
41885;SDS011;27567;43.084;25.616;2022-08-04T06:16:12;23.48;;;12.15;;
41885;SDS011;27567;43.084;25.616;2022-08-04T06:19:02;33.38;;;12.35;;
41885;SDS011;27567;43.084;25.616;2022-08-04T06:21:50;30.85;;;12.57;;
41885;SDS011;27567;43.084;25.616;2022-08-04T06:24:37;27.48;;;13.30;;
41885;SDS011;27567;43.084;25.616;2022-08-04T06:27:23;35.78;;;12.43;;
41885;SDS011;27567;43.084;25.616;2022-08-04T06:30:07;25.02;;;10.48;;
41885;SDS011;27567;43.084;25.616;2022-08-04T06:32:56;21.60;;;12.23;;
41885;SDS011;27567;43.084;25.616;2022-08-04T06:35:45;22.58;;;10.55;;
41885;SDS011;27567;43.084;25.616;2022-08-04T06:38:31;17.27;;;7.60;;
41885;SDS011;27567;43.084;25.616;2022-08-04T06:41:18;18.63;;;8.18;;
41885;SDS011;27567;43.084;25.616;2022-08-04T06:44:07;14.93;;;9.35;;
41885;SDS011;27567;43.084;25.616;2022-08-04T06:46:53;32.53;;;7.68;;
41885;SDS011;27567;43.084;25.616;2022-08-04T06:49:37;15.07;;;6.00;;
41885;SDS011;27567;43.084;25.616;2022-08-04T06:52:23;14.55;;;6.65;;
41885;SDS011;27567;43.084;25.616;2022-08-04T06:55:07;17.17;;;5.80;;
41885;SDS011;27567;43.084;25.616;2022-08-04T06:57:52;11.32;;;5.70;;
41885;SDS011;27567;43.084;25.616;2022-08-04T07:00:39;9.20;;;4.32;;
41885;SDS011;27567;43.084;25.616;2022-08-04T07:03:26;7.68;;;3.80;;
41885;SDS011;27567;43.084;25.616;2022-08-04T07:06:11;15.10;;;3.20;;
41885;SDS011;27567;43.084;25.616;2022-08-04T07:08:55;6.43;;;3.28;;
41885;SDS011;27567;43.084;25.616;2022-08-04T07:11:39;15.80;;;3.17;;
41885;SDS011;27567;43.084;25.616;2022-08-04T07:14:24;5.60;;;2.35;;
41885;SDS011;27567;43.084;25.616;2022-08-04T07:17:09;6.78;;;2.15;;
41885;SDS011;27567;43.084;25.616;2022-08-04T07:19:54;4.97;;;2.40;;
41885;SDS011;27567;43.084;25.616;2022-08-04T07:22:39;3.92;;;2.05;;
41885;SDS011;27567;43.084;25.616;2022-08-04T07:25:25;6.72;;;2.58;;
41885;SDS011;27567;43.084;25.616;2022-08-04T07:28:09;5.00;;;1.80;;
41885;SDS011;27567;43.084;25.616;2022-08-04T07:30:54;4.25;;;1.85;;
41885;SDS011;27567;43.084;25.616;2022-08-04T07:33:40;6.10;;;2.22;;
41885;SDS011;27567;43.084;25.616;2022-08-04T07:36:25;7.90;;;3.42;;
41885;SDS011;27567;43.084;25.616;2022-08-04T07:39:09;5.95;;;2.40;;
41885;SDS011;27567;43.084;25.616;2022-08-04T07:41:53;2.10;;;1.60;;
41885;SDS011;27567;43.084;25.616;2022-08-04T07:44:39;2.42;;;1.95;;
41885;SDS011;27567;43.084;25.616;2022-08-04T07:47:23;4.65;;;2.35;;
41885;SDS011;27567;43.084;25.616;2022-08-04T07:50:08;5.95;;;2.45;;
41885;SDS011;27567;43.084;25.616;2022-08-04T07:52:53;6.90;;;1.83;;
41885;SDS011;27567;43.084;25.616;2022-08-04T07:55:37;4.95;;;2.38;;
41885;SDS011;27567;43.084;25.616;2022-08-04T07:58:21;4.63;;;2.60;;
41885;SDS011;27567;43.084;25.616;2022-08-04T08:01:06;4.32;;;2.20;;
41885;SDS011;27567;43.084;25.616;2022-08-04T08:03:52;16.00;;;2.80;;
41885;SDS011;27567;43.084;25.616;2022-08-04T08:06:39;8.50;;;2.28;;
41885;SDS011;27567;43.084;25.616;2022-08-04T08:09:23;8.02;;;1.73;;
41885;SDS011;27567;43.084;25.616;2022-08-04T08:12:08;10.75;;;2.05;;
41885;SDS011;27567;43.084;25.616;2022-08-04T08:14:54;5.75;;;2.15;;
41885;SDS011;27567;43.084;25.616;2022-08-04T08:17:38;9.52;;;1.92;;
41885;SDS011;27567;43.084;25.616;2022-08-04T08:20:23;7.35;;;2.58;;
41885;SDS011;27567;43.084;25.616;2022-08-04T08:23:07;4.78;;;3.20;;
41885;SDS011;27567;43.084;25.616;2022-08-04T08:25:51;6.90;;;2.00;;
41885;SDS011;27567;43.084;25.616;2022-08-04T08:28:35;6.00;;;2.45;;
41885;SDS011;27567;43.084;25.616;2022-08-04T08:31:19;6.28;;;2.65;;
41885;SDS011;27567;43.084;25.616;2022-08-04T08:34:03;3.90;;;1.80;;
41885;SDS011;27567;43.084;25.616;2022-08-04T08:36:50;3.28;;;1.98;;
41885;SDS011;27567;43.084;25.616;2022-08-04T08:39:44;4.47;;;2.15;;
41885;SDS011;27567;43.084;25.616;2022-08-04T08:45:45;3.17;;;1.77;;
41885;SDS011;27567;43.084;25.616;2022-08-04T08:58:43;3.45;;;1.60;;
41885;SDS011;27567;43.084;25.616;2022-08-04T09:04:34;6.57;;;2.20;;
41885;SDS011;27567;43.084;25.616;2022-08-04T09:07:50;4.93;;;1.90;;
41885;SDS011;27567;43.084;25.616;2022-08-04T09:10:45;5.50;;;1.90;;
41885;SDS011;27567;43.084;25.616;2022-08-04T09:13:35;5.00;;;1.80;;
41885;SDS011;27567;43.084;25.616;2022-08-04T09:16:30;5.43;;;2.17;;
41885;SDS011;27567;43.084;25.616;2022-08-04T09:19:35;3.85;;;2.53;;
41885;SDS011;27567;43.084;25.616;2022-08-04T09:26:18;3.08;;;2.00;;
41885;SDS011;27567;43.084;25.616;2022-08-04T09:28:52;3.45;;;1.75;;
41885;SDS011;27567;43.084;25.616;2022-08-04T09:35:09;4.15;;;2.15;;
41885;SDS011;27567;43.084;25.616;2022-08-04T09:47:38;15.55;;;3.28;;
41885;SDS011;27567;43.084;25.616;2022-08-04T09:50:40;3.65;;;1.80;;
41885;SDS011;27567;43.084;25.616;2022-08-04T10:00:04;11.05;;;1.88;;
41885;SDS011;27567;43.084;25.616;2022-08-04T10:02:55;8.30;;;2.10;;
41885;SDS011;27567;43.084;25.616;2022-08-04T10:14:54;7.55;;;1.80;;
41885;SDS011;27567;43.084;25.616;2022-08-04T10:17:48;4.30;;;2.10;;
41885;SDS011;27567;43.084;25.616;2022-08-04T10:21:04;4.93;;;2.00;;
41885;SDS011;27567;43.084;25.616;2022-08-04T10:27:51;4.30;;;2.50;;
41885;SDS011;27567;43.084;25.616;2022-08-04T10:30:26;7.35;;;1.90;;
41885;SDS011;27567;43.084;25.616;2022-08-04T10:36:17;16.77;;;2.08;;
41885;SDS011;27567;43.084;25.616;2022-08-04T10:39:11;5.63;;;1.77;;
41885;SDS011;27567;43.084;25.616;2022-08-04T10:45:17;2.15;;;1.40;;
41885;SDS011;27567;43.084;25.616;2022-08-04T10:48:06;2.30;;;1.50;;
41885;SDS011;27567;43.084;25.616;2022-08-04T10:54:02;2.55;;;1.70;;
41885;SDS011;27567;43.084;25.616;2022-08-04T11:00:07;3.17;;;1.65;;
41885;SDS011;27567;43.084;25.616;2022-08-04T11:02:54;7.55;;;2.10;;
41885;SDS011;27567;43.084;25.616;2022-08-04T11:05:53;1.48;;;1.38;;
41885;SDS011;27567;43.084;25.616;2022-08-04T11:08:41;3.88;;;1.60;;
41885;SDS011;27567;43.084;25.616;2022-08-04T11:11:32;6.28;;;1.70;;
41885;SDS011;27567;43.084;25.616;2022-08-04T11:14:22;9.18;;;1.75;;
41885;SDS011;27567;43.084;25.616;2022-08-04T11:17:18;7.85;;;1.60;;
41885;SDS011;27567;43.084;25.616;2022-08-04T11:23:10;2.72;;;1.52;;
41885;SDS011;27567;43.084;25.616;2022-08-04T11:31:58;1.63;;;1.50;;
41885;SDS011;27567;43.084;25.616;2022-08-04T11:34:48;1.80;;;1.70;;
41885;SDS011;27567;43.084;25.616;2022-08-04T11:37:42;2.42;;;1.63;;
41885;SDS011;27567;43.084;25.616;2022-08-04T11:40:35;6.05;;;1.80;;
41885;SDS011;27567;43.084;25.616;2022-08-04T11:43:25;2.45;;;1.30;;
41885;SDS011;27567;43.084;25.616;2022-08-04T11:46:21;8.70;;;1.65;;
41885;SDS011;27567;43.084;25.616;2022-08-04T11:52:16;3.45;;;1.35;;
41885;SDS011;27567;43.084;25.616;2022-08-04T11:55:06;3.92;;;1.50;;
41885;SDS011;27567;43.084;25.616;2022-08-04T11:57:53;4.22;;;1.70;;
41885;SDS011;27567;43.084;25.616;2022-08-04T12:00:40;5.07;;;1.35;;
41885;SDS011;27567;43.084;25.616;2022-08-04T12:06:41;3.90;;;1.70;;
41885;SDS011;27567;43.084;25.616;2022-08-04T12:09:35;2.35;;;1.55;;
41885;SDS011;27567;43.084;25.616;2022-08-04T12:15:30;3.13;;;1.80;;
41885;SDS011;27567;43.084;25.616;2022-08-04T12:24:14;3.65;;;1.50;;
41885;SDS011;27567;43.084;25.616;2022-08-04T12:27:10;2.08;;;1.30;;
41885;SDS011;27567;43.084;25.616;2022-08-04T12:29:55;3.30;;;1.60;;
41885;SDS011;27567;43.084;25.616;2022-08-04T12:35:32;3.83;;;1.33;;
41885;SDS011;27567;43.084;25.616;2022-08-04T12:38:23;3.08;;;1.30;;
41885;SDS011;27567;43.084;25.616;2022-08-04T12:41:10;2.38;;;1.50;;
41885;SDS011;27567;43.084;25.616;2022-08-04T12:44:03;3.35;;;1.77;;
41885;SDS011;27567;43.084;25.616;2022-08-04T12:46:50;5.30;;;1.60;;
41885;SDS011;27567;43.084;25.616;2022-08-04T12:49:35;5.85;;;1.90;;
41885;SDS011;27567;43.084;25.616;2022-08-04T12:52:22;8.40;;;1.63;;
41885;SDS011;27567;43.084;25.616;2022-08-04T12:55:08;4.65;;;1.50;;
41885;SDS011;27567;43.084;25.616;2022-08-04T12:57:53;6.10;;;1.50;;
41885;SDS011;27567;43.084;25.616;2022-08-04T13:00:39;4.38;;;1.42;;
41885;SDS011;27567;43.084;25.616;2022-08-04T13:03:26;3.90;;;1.80;;
41885;SDS011;27567;43.084;25.616;2022-08-04T13:06:14;5.43;;;1.50;;
41885;SDS011;27567;43.084;25.616;2022-08-04T13:09:14;4.60;;;1.58;;
41885;SDS011;27567;43.084;25.616;2022-08-04T13:12:02;3.08;;;1.98;;
41885;SDS011;27567;43.084;25.616;2022-08-04T13:14:57;1.65;;;1.30;;
41885;SDS011;27567;43.084;25.616;2022-08-04T13:17:54;2.08;;;1.65;;
41885;SDS011;27567;43.084;25.616;2022-08-04T13:23:31;10.50;;;1.52;;
41885;SDS011;27567;43.084;25.616;2022-08-04T13:26:16;3.35;;;1.40;;
41885;SDS011;27567;43.084;25.616;2022-08-04T13:29:04;2.45;;;1.20;;
41885;SDS011;27567;43.084;25.616;2022-08-04T13:31:50;9.18;;;1.40;;
41885;SDS011;27567;43.084;25.616;2022-08-04T13:34:39;2.42;;;1.48;;
41885;SDS011;27567;43.084;25.616;2022-08-04T13:37:34;3.90;;;1.55;;
41885;SDS011;27567;43.084;25.616;2022-08-04T13:40:22;4.82;;;1.75;;
41885;SDS011;27567;43.084;25.616;2022-08-04T13:43:09;4.63;;;1.70;;
41885;SDS011;27567;43.084;25.616;2022-08-04T13:46:07;4.63;;;1.67;;
41885;SDS011;27567;43.084;25.616;2022-08-04T13:48:56;3.83;;;1.52;;
41885;SDS011;27567;43.084;25.616;2022-08-04T13:51:50;2.72;;;1.60;;
41885;SDS011;27567;43.084;25.616;2022-08-04T13:54:39;2.10;;;1.55;;
41885;SDS011;27567;43.084;25.616;2022-08-04T13:57:28;3.85;;;1.40;;
41885;SDS011;27567;43.084;25.616;2022-08-04T14:00:14;2.53;;;1.70;;
41885;SDS011;27567;43.084;25.616;2022-08-04T14:03:03;2.42;;;1.75;;
41885;SDS011;27567;43.084;25.616;2022-08-04T14:08:58;4.25;;;1.60;;
41885;SDS011;27567;43.084;25.616;2022-08-04T14:11:52;1.65;;;1.40;;
41885;SDS011;27567;43.084;25.616;2022-08-04T14:14:46;4.57;;;1.60;;
41885;SDS011;27567;43.084;25.616;2022-08-04T14:17:34;4.13;;;1.65;;
41885;SDS011;27567;43.084;25.616;2022-08-04T14:20:18;7.60;;;1.90;;
41885;SDS011;27567;43.084;25.616;2022-08-04T14:23:02;3.28;;;1.60;;
41885;SDS011;27567;43.084;25.616;2022-08-04T14:25:46;6.72;;;1.70;;
41885;SDS011;27567;43.084;25.616;2022-08-04T14:28:31;4.00;;;1.52;;
41885;SDS011;27567;43.084;25.616;2022-08-04T14:31:16;2.13;;;1.20;;
41885;SDS011;27567;43.084;25.616;2022-08-04T14:34:02;4.85;;;2.30;;
41885;SDS011;27567;43.084;25.616;2022-08-04T14:36:45;2.35;;;1.60;;
41885;SDS011;27567;43.084;25.616;2022-08-04T14:39:37;2.65;;;1.83;;
41885;SDS011;27567;43.084;25.616;2022-08-04T14:42:39;4.90;;;2.13;;
41885;SDS011;27567;43.084;25.616;2022-08-04T14:45:32;2.25;;;1.35;;
41885;SDS011;27567;43.084;25.616;2022-08-04T14:48:18;4.75;;;1.60;;
41885;SDS011;27567;43.084;25.616;2022-08-04T14:51:04;1.58;;;1.20;;
41885;SDS011;27567;43.084;25.616;2022-08-04T14:53:55;2.70;;;1.48;;
41885;SDS011;27567;43.084;25.616;2022-08-04T14:56:40;2.65;;;1.48;;
41885;SDS011;27567;43.084;25.616;2022-08-04T15:02:27;4.90;;;1.30;;
41885;SDS011;27567;43.084;25.616;2022-08-04T15:05:12;3.95;;;1.30;;
41885;SDS011;27567;43.084;25.616;2022-08-04T15:07:58;1.58;;;1.15;;
41885;SDS011;27567;43.084;25.616;2022-08-04T15:10:43;1.88;;;1.52;;
41885;SDS011;27567;43.084;25.616;2022-08-04T15:13:27;3.03;;;1.30;;
41885;SDS011;27567;43.084;25.616;2022-08-04T15:16:15;6.70;;;1.40;;
41885;SDS011;27567;43.084;25.616;2022-08-04T15:18:59;1.83;;;1.30;;
41885;SDS011;27567;43.084;25.616;2022-08-04T15:21:44;6.00;;;1.58;;
41885;SDS011;27567;43.084;25.616;2022-08-04T15:24:28;2.85;;;1.50;;
41885;SDS011;27567;43.084;25.616;2022-08-04T15:27:12;2.83;;;1.45;;
41885;SDS011;27567;43.084;25.616;2022-08-04T15:29:59;1.92;;;1.35;;
41885;SDS011;27567;43.084;25.616;2022-08-04T15:32:50;5.75;;;1.65;;
41885;SDS011;27567;43.084;25.616;2022-08-04T15:35:36;1.42;;;1.23;;
41885;SDS011;27567;43.084;25.616;2022-08-04T15:38:28;4.82;;;1.55;;
41885;SDS011;27567;43.084;25.616;2022-08-04T15:41:37;5.72;;;3.28;;
41885;SDS011;27567;43.084;25.616;2022-08-04T15:47:26;2.58;;;1.80;;
41885;SDS011;27567;43.084;25.616;2022-08-04T15:50:11;3.38;;;1.33;;
41885;SDS011;27567;43.084;25.616;2022-08-04T15:53:03;3.83;;;1.95;;
41885;SDS011;27567;43.084;25.616;2022-08-04T15:55:47;4.75;;;1.33;;
41885;SDS011;27567;43.084;25.616;2022-08-04T15:58:46;3.15;;;1.58;;
41885;SDS011;27567;43.084;25.616;2022-08-04T16:01:32;2.85;;;1.50;;
41885;SDS011;27567;43.084;25.616;2022-08-04T16:04:21;2.88;;;1.75;;
41885;SDS011;27567;43.084;25.616;2022-08-04T16:07:06;1.77;;;1.30;;
41885;SDS011;27567;43.084;25.616;2022-08-04T16:09:50;3.05;;;1.40;;
41885;SDS011;27567;43.084;25.616;2022-08-04T16:12:52;3.95;;;1.63;;
41885;SDS011;27567;43.084;25.616;2022-08-04T16:15:38;2.55;;;1.40;;
41885;SDS011;27567;43.084;25.616;2022-08-04T16:21:17;5.10;;;1.48;;
41885;SDS011;27567;43.084;25.616;2022-08-04T16:24:48;3.90;;;1.45;;
41885;SDS011;27567;43.084;25.616;2022-08-04T16:27:17;3.63;;;1.58;;
41885;SDS011;27567;43.084;25.616;2022-08-04T16:30:21;3.67;;;1.70;;
41885;SDS011;27567;43.084;25.616;2022-08-04T16:33:07;4.45;;;2.05;;
41885;SDS011;27567;43.084;25.616;2022-08-04T16:35:51;2.33;;;1.83;;
41885;SDS011;27567;43.084;25.616;2022-08-04T16:41:46;3.30;;;1.55;;
41885;SDS011;27567;43.084;25.616;2022-08-04T16:44:33;8.32;;;1.83;;
41885;SDS011;27567;43.084;25.616;2022-08-04T16:47:59;7.43;;;1.50;;
41885;SDS011;27567;43.084;25.616;2022-08-04T16:50:30;5.80;;;2.10;;
41885;SDS011;27567;43.084;25.616;2022-08-04T16:53:15;3.58;;;1.60;;
41885;SDS011;27567;43.084;25.616;2022-08-04T16:56:01;3.50;;;1.67;;
41885;SDS011;27567;43.084;25.616;2022-08-04T16:58:46;6.45;;;1.90;;
41885;SDS011;27567;43.084;25.616;2022-08-04T17:01:32;11.50;;;7.82;;
41885;SDS011;27567;43.084;25.616;2022-08-04T17:04:17;3.78;;;1.70;;
41885;SDS011;27567;43.084;25.616;2022-08-04T17:07:10;2.47;;;2.03;;
41885;SDS011;27567;43.084;25.616;2022-08-04T17:09:54;7.57;;;1.73;;
41885;SDS011;27567;43.084;25.616;2022-08-04T17:12:39;8.77;;;1.83;;
41885;SDS011;27567;43.084;25.616;2022-08-04T17:15:24;6.72;;;2.08;;
41885;SDS011;27567;43.084;25.616;2022-08-04T17:18:12;4.60;;;1.90;;
41885;SDS011;27567;43.084;25.616;2022-08-04T17:20:58;7.22;;;1.70;;
41885;SDS011;27567;43.084;25.616;2022-08-04T17:23:44;3.53;;;1.98;;
41885;SDS011;27567;43.084;25.616;2022-08-04T17:26:33;4.60;;;2.28;;
41885;SDS011;27567;43.084;25.616;2022-08-04T17:29:19;3.63;;;2.05;;
41885;SDS011;27567;43.084;25.616;2022-08-04T17:32:04;5.13;;;2.47;;
41885;SDS011;27567;43.084;25.616;2022-08-04T17:34:58;4.43;;;1.95;;
41885;SDS011;27567;43.084;25.616;2022-08-04T17:37:43;4.65;;;1.92;;
41885;SDS011;27567;43.084;25.616;2022-08-04T17:40:27;4.45;;;2.10;;
41885;SDS011;27567;43.084;25.616;2022-08-04T17:43:11;10.90;;;2.78;;
41885;SDS011;27567;43.084;25.616;2022-08-04T17:52:00;5.22;;;2.45;;
41885;SDS011;27567;43.084;25.616;2022-08-04T17:54:44;14.18;;;2.42;;
41885;SDS011;27567;43.084;25.616;2022-08-04T17:57:29;3.50;;;2.03;;
41885;SDS011;27567;43.084;25.616;2022-08-04T18:00:14;5.88;;;2.35;;
41885;SDS011;27567;43.084;25.616;2022-08-04T18:02:59;4.90;;;1.90;;
41885;SDS011;27567;43.084;25.616;2022-08-04T18:05:43;5.28;;;3.00;;
41885;SDS011;27567;43.084;25.616;2022-08-04T18:08:27;3.45;;;2.10;;
41885;SDS011;27567;43.084;25.616;2022-08-04T18:11:17;4.55;;;3.00;;
41885;SDS011;27567;43.084;25.616;2022-08-04T18:14:01;4.40;;;2.70;;
41885;SDS011;27567;43.084;25.616;2022-08-04T18:16:45;8.13;;;2.60;;
41885;SDS011;27567;43.084;25.616;2022-08-04T18:19:30;6.90;;;3.10;;
41885;SDS011;27567;43.084;25.616;2022-08-04T18:22:14;6.60;;;2.90;;
41885;SDS011;27567;43.084;25.616;2022-08-04T18:24:59;4.85;;;2.17;;
41885;SDS011;27567;43.084;25.616;2022-08-04T18:27:53;6.82;;;2.63;;
41885;SDS011;27567;43.084;25.616;2022-08-04T18:30:38;5.57;;;2.78;;
41885;SDS011;27567;43.084;25.616;2022-08-04T18:33:23;8.75;;;3.28;;
41885;SDS011;27567;43.084;25.616;2022-08-04T18:36:08;5.47;;;2.72;;
41885;SDS011;27567;43.084;25.616;2022-08-04T18:38:53;4.95;;;2.70;;
41885;SDS011;27567;43.084;25.616;2022-08-04T18:41:37;6.70;;;2.53;;
41885;SDS011;27567;43.084;25.616;2022-08-04T18:44:21;6.40;;;3.05;;
41885;SDS011;27567;43.084;25.616;2022-08-04T18:47:06;9.07;;;3.28;;
41885;SDS011;27567;43.084;25.616;2022-08-04T18:49:51;5.45;;;4.00;;
41885;SDS011;27567;43.084;25.616;2022-08-04T18:52:35;7.43;;;2.47;;
41885;SDS011;27567;43.084;25.616;2022-08-04T18:55:20;8.88;;;2.95;;
41885;SDS011;27567;43.084;25.616;2022-08-04T18:58:04;7.25;;;3.28;;
41885;SDS011;27567;43.084;25.616;2022-08-04T19:00:48;9.35;;;2.45;;
41885;SDS011;27567;43.084;25.616;2022-08-04T19:03:32;7.88;;;3.05;;
41885;SDS011;27567;43.084;25.616;2022-08-04T19:06:16;9.30;;;2.63;;
41885;SDS011;27567;43.084;25.616;2022-08-04T19:09:01;7.82;;;3.03;;
41885;SDS011;27567;43.084;25.616;2022-08-04T19:11:47;6.72;;;2.95;;
41885;SDS011;27567;43.084;25.616;2022-08-04T19:14:31;3.65;;;2.47;;
41885;SDS011;27567;43.084;25.616;2022-08-04T19:17:15;7.57;;;3.00;;
41885;SDS011;27567;43.084;25.616;2022-08-04T19:19:59;6.57;;;3.20;;
41885;SDS011;27567;43.084;25.616;2022-08-04T19:22:45;7.97;;;3.80;;
41885;SDS011;27567;43.084;25.616;2022-08-04T19:25:29;9.65;;;3.40;;
41885;SDS011;27567;43.084;25.616;2022-08-04T19:28:14;7.07;;;3.45;;
41885;SDS011;27567;43.084;25.616;2022-08-04T19:30:58;4.40;;;3.08;;
41885;SDS011;27567;43.084;25.616;2022-08-04T19:33:42;10.50;;;4.40;;
41885;SDS011;27567;43.084;25.616;2022-08-04T19:36:28;10.68;;;3.90;;
41885;SDS011;27567;43.084;25.616;2022-08-04T19:39:13;5.32;;;3.05;;
41885;SDS011;27567;43.084;25.616;2022-08-04T19:41:57;9.88;;;4.55;;
41885;SDS011;27567;43.084;25.616;2022-08-04T19:44:41;12.57;;;3.60;;
41885;SDS011;27567;43.084;25.616;2022-08-04T19:47:25;7.68;;;3.10;;
41885;SDS011;27567;43.084;25.616;2022-08-04T19:50:09;4.30;;;3.05;;
41885;SDS011;27567;43.084;25.616;2022-08-04T19:52:54;7.38;;;3.30;;
41885;SDS011;27567;43.084;25.616;2022-08-04T19:55:38;8.57;;;4.28;;
41885;SDS011;27567;43.084;25.616;2022-08-04T19:58:21;12.35;;;3.22;;
41885;SDS011;27567;43.084;25.616;2022-08-04T20:01:07;12.35;;;3.78;;
41885;SDS011;27567;43.084;25.616;2022-08-04T20:03:51;11.00;;;3.22;;
41885;SDS011;27567;43.084;25.616;2022-08-04T20:06:36;15.27;;;4.93;;
41885;SDS011;27567;43.084;25.616;2022-08-04T20:09:20;10.05;;;3.88;;
41885;SDS011;27567;43.084;25.616;2022-08-04T20:12:04;10.70;;;3.55;;
41885;SDS011;27567;43.084;25.616;2022-08-04T20:14:48;15.50;;;3.90;;
41885;SDS011;27567;43.084;25.616;2022-08-04T20:17:33;13.48;;;4.85;;
41885;SDS011;27567;43.084;25.616;2022-08-04T20:20:17;12.85;;;4.70;;
41885;SDS011;27567;43.084;25.616;2022-08-04T20:23:01;9.93;;;4.60;;
41885;SDS011;27567;43.084;25.616;2022-08-04T20:25:45;16.35;;;7.88;;
41885;SDS011;27567;43.084;25.616;2022-08-04T20:28:30;20.90;;;10.68;;
41885;SDS011;27567;43.084;25.616;2022-08-04T20:31:14;20.00;;;10.77;;
41885;SDS011;27567;43.084;25.616;2022-08-04T20:33:58;21.40;;;10.35;;
41885;SDS011;27567;43.084;25.616;2022-08-04T20:36:42;13.90;;;7.55;;
41885;SDS011;27567;43.084;25.616;2022-08-04T20:39:26;12.35;;;6.15;;
41885;SDS011;27567;43.084;25.616;2022-08-04T20:42:10;19.17;;;7.05;;
41885;SDS011;27567;43.084;25.616;2022-08-04T20:44:54;9.73;;;5.93;;
41885;SDS011;27567;43.084;25.616;2022-08-04T20:47:38;13.63;;;4.90;;
41885;SDS011;27567;43.084;25.616;2022-08-04T20:50:22;8.93;;;4.18;;
41885;SDS011;27567;43.084;25.616;2022-08-04T20:53:06;22.75;;;4.93;;
41885;SDS011;27567;43.084;25.616;2022-08-04T20:55:50;6.75;;;4.55;;
41885;SDS011;27567;43.084;25.616;2022-08-04T20:58:34;11.02;;;5.57;;
41885;SDS011;27567;43.084;25.616;2022-08-04T21:01:18;10.10;;;5.95;;
41885;SDS011;27567;43.084;25.616;2022-08-04T21:04:02;14.02;;;6.60;;
41885;SDS011;27567;43.084;25.616;2022-08-04T21:07:05;15.02;;;5.97;;